Terminal Aerodrome Forecast
Issued by NWS

Home | Current Version | Previous Version | Graphics & Text | Print | Product List | Glossary On
Versions: 1 2 3 4 5 6 7 8 9 10 11 12 13 14 15 16 17 18 19 20 21 22
000
FTUS43 KDDC 271720
TAFHYS
TAF
KHYS 271720Z 2718/2818 18019G27KT P6SM FEW200
     FM280100 19017KT P6SM FEW250
     FM280400 17020G28KT P6SM VCTS BKN100CB WS020/18050KT
     FM280800 19015G23KT P6SM FEW250 WS020/20045KT
     FM281000 20015G23KT P6SM FEW250=

USA.gov is the U.S. government's official web portal to all federal, state and local government web resources and services.